Sheldon, Vermont
Current Conditions -  °F | °C
As of 7:15 PM on Saturday 25 Oct 2014 (Local Time) from KFSO Reporting Station
Moderate Rain Moderate Rain  
Wind Chill: 50°   Ceiling: 5500
Heat Index: 50°   Visibility: 5mi
Dew Point: 48°   Wind: 14mph
Humidity: 94%   Direction: 160°SSE
Pressure: 29.46"   Gusts: NA
Location:  44.88°N, 72.94°W
Report Text: KFSO 252315Z AUTO 16012KT 5SM RA SCT028 SCT037 OVC055 10/09 A2946 RMK AO2 T01000090
Loading
Personal Weather Stations






























Interactive Weather Map
Tropical Storm Tracking
New forecast layout! Learn more

10-Day Weather Forecast

Advertisements
Track Severe Weather on mobile